Time;durP1;ratioP1;P1;durP2;ratioP2;P2;SDS_P1;SDS_P2;PMS_P1;PMS_P2;Temp;Humidity;BMP_temperature;BMP_pressure;BME280_temperature;BME280_humidity;BME280_pressure;Samples;Min_cycle;Max_cycle;Signal;HPM_P1;HPM_P2
2024/03/17 00:00:54;;;;;;;9.60;3.05;;;4.60;99.90;;;;;;12555822;28;20562;-83
2024/03/17 00:06:54;;;;;;;5.85;2.50;;;4.60;99.90;;;;;;12556301;28;20056;-83
2024/03/17 00:12:57;;;;;;;10.00;2.55;;;4.60;99.90;;;;;;12559313;28;20056;-79
2024/03/17 00:18:58;;;;;;;6.45;2.58;;;4.60;99.90;;;;;;12580189;28;20053;-80
2024/03/17 00:24:59;;;;;;;7.25;2.50;;;4.50;99.90;;;;;;12558463;28;20068;-82
2024/03/17 00:30:59;;;;;;;4.45;2.60;;;4.40;99.90;;;;;;12556117;28;20369;-82
2024/03/17 00:37:00;;;;;;;3.35;2.25;;;4.40;99.90;;;;;;12551559;28;20094;-83
2024/03/17 00:43:01;;;;;;;3.45;1.95;;;4.40;99.90;;;;;;12555780;28;20148;-83
2024/03/17 00:49:02;;;;;;;7.35;4.70;;;4.30;99.90;;;;;;12554882;28;20139;-83
2024/03/17 00:55:03;;;;;;;6.53;2.58;;;4.10;99.90;;;;;;12565404;28;20044;-83
2024/03/17 01:01:04;;;;;;;4.25;2.35;;;3.90;99.90;;;;;;12557988;28;20128;-83
2024/03/17 01:07:05;;;;;;;5.60;2.40;;;3.80;99.90;;;;;;12578081;28;20060;-83
2024/03/17 01:13:08;;;;;;;11.13;2.65;;;3.80;99.90;;;;;;12553654;28;20068;-83
2024/03/17 01:19:09;;;;;;;5.72;2.45;;;3.70;99.90;;;;;;12551981;28;20503;-83
2024/03/17 01:25:10;;;;;;;8.20;3.00;;;3.80;99.90;;;;;;12557728;28;20048;-79
2024/03/17 01:31:11;;;;;;;5.40;3.15;;;3.80;99.90;;;;;;12589367;28;20045;-80
2024/03/17 01:37:12;;;;;;;7.78;2.83;;;3.70;99.90;;;;;;12558886;28;20044;-83
2024/03/17 01:43:13;;;;;;;10.70;3.15;;;3.60;99.90;;;;;;12554149;28;20136;-82
2024/03/17 01:49:14;;;;;;;6.82;3.25;;;3.30;99.90;;;;;;12551443;28;20511;-83
2024/03/17 01:55:15;;;;;;;9.35;2.83;;;3.10;99.90;;;;;;12553167;28;20544;-83
2024/03/17 02:01:16;;;;;;;4.63;2.45;;;2.90;99.90;;;;;;12554018;28;20424;-83
2024/03/17 02:07:17;;;;;;;6.75;2.53;;;3.10;99.90;;;;;;12547907;28;20108;-82
2024/03/17 02:13:18;;;;;;;4.55;2.70;;;3.10;99.90;;;;;;12587085;28;20049;-82
2024/03/17 02:19:19;;;;;;;8.20;2.47;;;3.30;99.90;;;;;;12555456;28;20109;-83
2024/03/17 02:25:20;;;;;;;10.63;2.80;;;3.30;99.90;;;;;;12548561;28;20051;-82
2024/03/17 02:31:22;;;;;;;3.83;2.70;;;3.20;99.90;;;;;;12568555;28;20052;-83
2024/03/17 02:37:23;;;;;;;7.97;2.58;;;3.30;99.90;;;;;;12577749;28;20052;-82
2024/03/17 02:43:24;;;;;;;5.63;3.00;;;3.40;99.90;;;;;;12552992;28;20056;-84
2024/03/17 02:49:36;;;;;;;7.30;2.80;;;3.30;99.90;;;;;;12556439;28;20064;-84
2024/03/17 02:55:37;;;;;;;6.05;2.75;;;3.30;99.90;;;;;;12567096;28;20444;-85
2024/03/17 03:01:38;;;;;;;7.80;2.80;;;3.30;99.90;;;;;;12552764;28;20057;-85
2024/03/17 03:07:39;;;;;;;6.90;3.10;;;3.20;99.90;;;;;;12559963;28;20102;-84
2024/03/17 03:13:41;;;;;;;6.20;2.97;;;3.20;99.90;;;;;;12562988;28;20056;-85
2024/03/17 03:19:42;;;;;;;8.27;3.35;;;3.20;99.90;;;;;;12566638;28;20051;-84
2024/03/17 03:25:43;;;;;;;6.80;3.10;;;3.30;99.90;;;;;;12562269;28;20507;-84
2024/03/17 03:31:44;;;;;;;4.57;3.00;;;3.40;99.90;;;;;;12545250;28;20048;-82
2024/03/17 03:37:46;;;;;;;7.22;3.22;;;3.20;99.90;;;;;;12558896;28;20048;-85
2024/03/17 03:43:47;;;;;;;9.68;4.68;;;3.20;99.90;;;;;;12553934;28;20440;-84
2024/03/17 03:49:48;;;;;;;8.05;3.50;;;3.30;99.90;;;;;;12557430;28;20075;-84
2024/03/17 03:55:49;;;;;;;8.43;4.15;;;3.20;99.90;;;;;;12575432;28;20083;-82
2024/03/17 04:01:50;;;;;;;8.93;3.60;;;3.10;99.90;;;;;;12549965;28;20140;-82
2024/03/17 04:07:51;;;;;;;6.35;3.17;;;3.20;99.90;;;;;;12564795;28;20127;-81
2024/03/17 04:13:52;;;;;;;8.07;3.58;;;3.10;99.90;;;;;;12535481;28;20053;-79
2024/03/17 04:19:54;;;;;;;7.82;3.80;;;3.00;99.90;;;;;;12560705;28;20048;-79
2024/03/17 04:25:55;;;;;;;6.93;4.05;;;3.00;99.90;;;;;;12571278;28;20056;-79
2024/03/17 04:31:56;;;;;;;6.60;3.78;;;2.90;99.90;;;;;;12563574;28;20056;-79
2024/03/17 04:37:57;;;;;;;8.60;3.88;;;2.90;99.90;;;;;;12558711;28;20052;-79
2024/03/17 04:43:58;;;;;;;5.38;4.15;;;2.90;99.90;;;;;;12576981;28;20123;-79
2024/03/17 04:49:59;;;;;;;5.72;3.40;;;2.90;99.90;;;;;;12570903;28;20052;-78
2024/03/17 04:56:01;;;;;;;7.47;3.50;;;2.80;99.90;;;;;;12574060;28;20044;-79
2024/03/17 05:02:02;;;;;;;8.57;3.85;;;2.80;99.90;;;;;;12555999;28;20060;-79
2024/03/17 05:08:03;;;;;;;8.98;5.53;;;2.80;99.90;;;;;;12574210;28;20394;-79
2024/03/17 05:14:04;;;;;;;7.18;4.30;;;2.70;99.90;;;;;;12575752;28;20047;-78
2024/03/17 05:20:06;;;;;;;8.52;4.28;;;2.70;99.90;;;;;;12571325;28;20083;-78
2024/03/17 05:26:07;;;;;;;10.50;4.63;;;2.60;99.90;;;;;;12559008;28;20060;-84
2024/03/17 05:32:07;;;;;;;6.63;4.75;;;2.80;99.90;;;;;;12550687;28;20049;-83
2024/03/17 05:38:10;;;;;;;9.82;5.45;;;2.90;99.90;;;;;;12572365;28;20437;-84
2024/03/17 05:44:11;;;;;;;9.95;5.78;;;3.00;99.90;;;;;;12549825;28;20060;-84
2024/03/17 05:50:12;;;;;;;9.00;5.35;;;3.10;99.90;;;;;;12554734;28;20048;-83
2024/03/17 05:56:15;;;;;;;8.90;5.45;;;3.20;99.90;;;;;;12565550;28;20044;-85
2024/03/17 06:02:18;;;;;;;7.97;6.22;;;3.30;99.90;;;;;;12550715;28;20064;-85
2024/03/17 06:08:20;;;;;;;6.63;4.65;;;3.30;99.90;;;;;;12552537;28;20052;-84
2024/03/17 06:14:20;;;;;;;10.80;5.47;;;3.70;99.90;;;;;;12535568;28;20071;-83
2024/03/17 06:20:23;;;;;;;7.70;4.97;;;3.80;99.90;;;;;;12552679;28;20102;-83
2024/03/17 06:26:26;;;;;;;8.68;4.80;;;4.10;99.90;;;;;;12549490;28;20448;-83
2024/03/17 06:32:27;;;;;;;9.30;4.93;;;4.50;99.90;;;;;;12550973;28;20109;-82
2024/03/17 06:38:28;;;;;;;7.28;4.70;;;4.60;99.90;;;;;;12546998;28;20082;-83
2024/03/17 06:44:30;;;;;;;7.82;4.78;;;4.70;99.90;;;;;;12516048;28;20088;-83
2024/03/17 06:50:31;;;;;;;5.95;3.95;;;5.30;99.90;;;;;;12534539;28;20653;-82
2024/03/17 06:56:32;;;;;;;6.35;4.15;;;5.50;99.90;;;;;;12557951;28;20052;-82
2024/03/17 07:02:33;;;;;;;6.35;4.25;;;5.60;99.90;;;;;;12553634;28;20060;-83
2024/03/17 07:08:34;;;;;;;7.05;4.53;;;5.60;99.90;;;;;;12550358;28;20060;-83
2024/03/17 07:14:36;;;;;;;7.55;4.38;;;5.60;99.90;;;;;;12547626;28;20044;-83
2024/03/17 07:20:38;;;;;;;12.05;5.00;;;5.70;99.90;;;;;;12563482;28;20052;-82
2024/03/17 07:26:39;;;;;;;7.45;5.07;;;5.70;99.90;;;;;;12567564;28;20064;-82
2024/03/17 07:32:40;;;;;;;10.48;4.50;;;5.70;99.90;;;;;;12552258;28;20416;-83
2024/03/17 07:38:41;;;;;;;7.95;4.00;;;5.80;99.90;;;;;;12569199;28;20045;-84
2024/03/17 07:44:45;;;;;;;8.07;4.45;;;5.80;99.90;;;;;;12555904;28;20098;-83
2024/03/17 07:50:58;;;;;;;9.45;4.90;;;5.90;99.90;;;;;;12558634;28;20056;-83
2024/03/17 07:56:58;;;;;;;8.45;4.60;;;6.00;99.90;;;;;;12561680;28;20053;-80
2024/03/17 08:02:59;;;;;;;9.02;5.93;;;6.10;99.90;;;;;;12565732;28;20048;-80
2024/03/17 08:09:01;;;;;;;8.15;5.53;;;6.30;99.90;;;;;;12567750;28;20053;-79
2024/03/17 08:15:02;;;;;;;6.90;4.88;;;6.50;99.90;;;;;;12565479;28;20100;-79
2024/03/17 08:21:04;;;;;;;9.18;5.55;;;6.70;99.90;;;;;;12571311;28;20051;-79
2024/03/17 08:27:05;;;;;;;10.23;5.22;;;6.80;99.90;;;;;;12583385;28;20102;-80
2024/03/17 08:33:08;;;;;;;8.90;5.72;;;7.10;99.90;;;;;;12579591;28;20471;-80
2024/03/17 08:39:11;;;;;;;7.78;5.72;;;7.40;99.90;;;;;;12566620;28;20055;-81
2024/03/17 08:45:12;;;;;;;10.45;6.03;;;7.70;99.90;;;;;;12559132;28;20056;-79
2024/03/17 08:51:13;;;;;;;8.65;6.88;;;8.00;99.90;;;;;;12584530;28;20056;-80
2024/03/17 08:57:14;;;;;;;10.05;8.38;;;8.10;99.90;;;;;;12576048;28;20555;-82
2024/03/17 09:03:15;;;;;;;10.20;7.35;;;8.30;99.90;;;;;;12559580;28;20152;-84
2024/03/17 09:09:19;;;;;;;10.80;7.07;;;8.70;99.90;;;;;;12564163;28;20056;-86
2024/03/17 09:15:20;;;;;;;14.02;8.82;;;9.10;99.90;;;;;;12550681;28;20052;-86
2024/03/17 09:21:22;;;;;;;18.25;10.18;;;9.40;99.90;;;;;;12549322;28;20052;-87
2024/03/17 09:27:25;;;;;;;13.98;9.55;;;9.50;99.90;;;;;;12550925;28;20106;-86
2024/03/17 09:33:28;;;;;;;14.33;9.47;;;9.80;99.90;;;;;;12574256;28;20056;-86
2024/03/17 09:39:28;;;;;;;14.45;10.05;;;10.00;99.90;;;;;;12552016;28;20056;-87
2024/03/17 09:45:33;;;;;;;13.55;9.82;;;10.40;99.90;;;;;;12552455;28;20393;-86
2024/03/17 09:51:36;;;;;;;14.32;10.85;;;10.50;99.90;;;;;;12551184;28;20052;-85
2024/03/17 09:57:39;;;;;;;13.23;9.93;;;10.40;99.90;;;;;;12547634;28;20056;-87
2024/03/17 10:03:58;;;;;;;14.38;9.30;;;10.50;99.90;;;;;;12565767;28;20664;-81
2024/03/17 10:10:12;;;;;;;12.05;9.20;;;10.80;99.90;;;;;;12593433;28;20056;-81
2024/03/17 10:16:24;;;;;;;11.85;9.27;;;11.30;99.90;;;;;;12555668;28;20504;-85
2024/03/17 10:22:25;;;;;;;12.50;8.02;;;11.20;99.90;;;;;;12551159;28;20056;-86
2024/03/17 10:28:26;;;;;;;12.20;8.27;;;11.30;99.90;;;;;;12551797;28;20064;-86
2024/03/17 10:34:35;;;;;;;9.48;7.40;;;11.40;99.90;;;;;;12559872;28;20044;-86
2024/03/17 10:40:38;;;;;;;11.73;8.43;;;11.60;99.90;;;;;;12559724;28;20106;-87
2024/03/17 10:46:40;;;;;;;12.20;7.82;;;11.50;99.90;;;;;;12555791;28;20056;-87
2024/03/17 10:52:51;;;;;;;12.20;5.68;;;11.70;99.90;;;;;;12559823;28;20049;-86
2024/03/17 10:58:57;;;;;;;9.23;5.68;;;11.40;99.90;;;;;;12555205;28;20059;-86
2024/03/17 11:05:02;;;;;;;7.15;5.05;;;11.30;99.90;;;;;;12578370;28;20404;-86
2024/03/17 11:11:03;;;;;;;11.70;7.60;;;11.80;99.90;;;;;;12563002;28;20118;-85
2024/03/17 11:17:18;;;;;;;9.80;6.30;;;11.90;99.90;;;;;;12562177;28;20133;-86
2024/03/17 11:23:29;;;;;;;9.93;6.68;;;11.80;99.90;;;;;;12553443;28;20060;-86
2024/03/17 11:29:32;;;;;;;12.70;6.13;;;12.30;99.90;;;;;;12568892;28;20064;-84
2024/03/17 11:35:33;;;;;;;8.77;5.10;;;12.40;99.90;;;;;;12573411;28;20049;-82
2024/03/17 11:41:37;;;;;;;7.55;4.70;;;12.40;99.90;;;;;;12571220;28;20045;-83
2024/03/17 11:47:40;;;;;;;9.40;5.00;;;12.50;99.90;;;;;;12595084;28;20121;-84
2024/03/17 11:53:41;;;;;;;8.23;5.15;;;12.80;99.90;;;;;;12587256;28;20060;-83
2024/03/17 11:59:45;;;;;;;9.10;4.60;;;12.70;99.90;;;;;;12570187;28;20067;-83
2024/03/17 12:05:46;;;;;;;7.90;4.00;;;12.40;99.90;;;;;;12595379;28;20048;-83
2024/03/17 12:11:49;;;;;;;10.57;5.00;;;12.90;99.90;;;;;;12595826;28;20490;-84
2024/03/17 12:17:53;;;;;;;8.55;4.55;;;13.10;99.90;;;;;;12592478;28;20074;-83
2024/03/17 12:23:54;;;;;;;7.43;3.67;;;12.80;99.90;;;;;;12573678;28;20064;-82
2024/03/17 12:29:55;;;;;;;6.75;4.28;;;12.70;99.90;;;;;;12555831;28;20683;-81
2024/03/17 12:36:00;;;;;;;9.55;5.38;;;12.90;99.90;;;;;;12572739;28;20082;-84
2024/03/17 12:42:14;;;;;;;8.07;4.70;;;12.70;99.90;;;;;;12573177;28;20041;-81
2024/03/17 12:48:15;;;;;;;7.80;4.72;;;12.60;99.90;;;;;;12575763;28;20488;-81
2024/03/17 12:54:20;;;;;;;9.13;4.95;;;12.90;99.90;;;;;;12578322;28;20084;-84
2024/03/17 13:00:32;;;;;;;9.02;5.97;;;13.00;99.90;;;;;;12585828;28;20060;-83
2024/03/17 13:06:33;;;;;;;8.68;4.47;;;12.60;99.90;;;;;;12589692;28;20059;-83
2024/03/17 13:12:34;;;;;;;10.05;5.03;;;12.40;99.90;;;;;;12585208;28;20421;-83
2024/03/17 13:18:35;;;;;;;9.20;6.10;;;12.70;99.90;;;;;;12573096;28;20057;-84
2024/03/17 13:24:36;;;;;;;9.30;5.65;;;12.80;99.90;;;;;;12572281;28;20528;-84
2024/03/17 13:30:37;;;;;;;10.10;6.03;;;12.80;99.90;;;;;;12589742;28;20079;-83
2024/03/17 13:36:38;;;;;;;8.55;5.18;;;12.60;99.90;;;;;;12560344;28;20071;-85
2024/03/17 13:42:40;;;;;;;9.40;6.03;;;12.60;99.90;;;;;;12518717;28;20049;-86
2024/03/17 13:48:41;;;;;;;12.65;6.70;;;12.80;99.90;;;;;;12513980;28;20083;-85
2024/03/17 13:54:42;;;;;;;12.20;6.63;;;12.50;99.90;;;;;;12505272;28;20102;-86
2024/03/17 14:00:43;;;;;;;11.95;7.25;;;12.50;99.90;;;;;;12511430;28;20060;-86
2024/03/17 14:06:50;;;;;;;11.57;7.35;;;12.20;99.90;;;;;;12500970;28;20144;-86
2024/03/17 14:12:51;;;;;;;10.82;7.05;;;12.20;99.90;;;;;;12515643;28;20049;-83
2024/03/17 14:18:52;;;;;;;14.63;7.18;;;12.00;99.90;;;;;;12523813;28;20061;-85
2024/03/17 14:24:53;;;;;;;10.82;6.55;;;11.90;99.90;;;;;;12501665;28;20420;-84
2024/03/17 14:30:54;;;;;;;12.57;6.97;;;11.80;99.90;;;;;;12508748;28;20059;-85
2024/03/17 14:36:55;;;;;;;10.00;6.10;;;11.70;99.90;;;;;;12496553;28;20045;-86
2024/03/17 14:42:56;;;;;;;10.02;6.90;;;11.70;99.90;;;;;;12517161;28;20056;-85
2024/03/17 14:48:57;;;;;;;11.57;6.72;;;11.60;99.90;;;;;;12498196;28;20057;-81
2024/03/17 14:54:58;;;;;;;10.70;6.60;;;11.70;99.90;;;;;;12523422;28;20041;-80
2024/03/17 15:00:59;;;;;;;11.05;6.68;;;11.50;99.90;;;;;;12501292;28;20045;-82
2024/03/17 15:06:59;;;;;;;11.13;6.35;;;11.50;99.90;;;;;;12516783;28;20049;-81
2024/03/17 15:13:01;;;;;;;11.75;6.55;;;11.50;99.90;;;;;;12506898;28;20053;-81
2024/03/17 15:19:03;;;;;;;10.13;5.90;;;11.40;99.90;;;;;;12517096;28;20516;-83
2024/03/17 15:25:05;;;;;;;9.85;6.28;;;11.30;99.90;;;;;;12514241;28;20053;-83
2024/03/17 15:31:12;;;;;;;11.07;6.68;;;11.30;99.90;;;;;;12523800;28;20049;-83
2024/03/17 15:37:13;;;;;;;10.43;6.30;;;11.30;99.90;;;;;;12522200;28;20149;-83
2024/03/17 15:43:14;;;;;;;10.18;6.60;;;11.20;99.90;;;;;;12521813;28;20509;-83
2024/03/17 15:49:15;;;;;;;11.27;6.75;;;11.20;99.90;;;;;;12503896;28;20049;-83
2024/03/17 15:55:17;;;;;;;10.23;6.57;;;11.20;99.90;;;;;;12497888;28;20053;-84
2024/03/17 16:01:18;;;;;;;11.35;7.20;;;11.20;99.90;;;;;;12504904;28;20061;-82
2024/03/17 16:07:23;;;;;;;9.88;6.32;;;11.10;99.90;;;;;;12516473;28;20548;-82
2024/03/17 16:13:26;;;;;;;10.98;7.05;;;11.00;99.90;;;;;;12520639;28;20560;-83
2024/03/17 16:19:31;;;;;;;11.65;6.90;;;11.00;99.90;;;;;;12519708;28;20059;-82
2024/03/17 16:25:32;;;;;;;13.20;7.43;;;11.00;99.90;;;;;;12506940;28;20061;-83
2024/03/17 16:31:33;;;;;;;11.07;6.60;;;10.80;99.90;;;;;;12500219;28;20056;-83
2024/03/17 16:37:34;;;;;;;10.13;6.32;;;10.80;99.90;;;;;;12523282;28;20516;-83
2024/03/17 16:44:17;;;;;;;11.35;6.28;;;10.70;99.90;;;;;;12512364;28;20505;-83
2024/03/17 16:50:17;;;;;;;11.95;6.10;;;10.60;99.90;;;;;;12514815;28;20437;-82
2024/03/17 16:56:19;;;;;;;12.73;6.40;;;10.60;99.90;;;;;;12532288;28;20143;-83
2024/03/17 17:02:20;;;;;;;11.20;6.75;;;10.50;99.90;;;;;;12507026;28;20053;-83
2024/03/17 17:08:21;;;;;;;12.05;6.53;;;10.40;99.90;;;;;;12503505;28;20060;-84
2024/03/17 17:14:22;;;;;;;10.10;6.00;;;10.30;99.90;;;;;;12512231;28;20056;-82
2024/03/17 17:20:25;;;;;;;10.20;6.40;;;10.30;99.90;;;;;;12518831;28;20049;-86
2024/03/17 17:26:27;;;;;;;13.18;6.25;;;10.20;99.90;;;;;;12501460;28;20053;-85
2024/03/17 17:32:29;;;;;;;9.23;5.55;;;10.00;99.90;;;;;;12487446;28;20049;-85
2024/03/17 17:38:30;;;;;;;11.98;6.55;;;10.00;99.90;;;;;;12511162;28;20049;-83
2024/03/17 17:44:32;;;;;;;10.05;5.75;;;9.90;99.90;;;;;;12522552;28;20346;-84
2024/03/17 17:50:33;;;;;;;10.60;6.13;;;9.90;99.90;;;;;;12518860;28;20056;-83
2024/03/17 17:56:34;;;;;;;12.82;6.15;;;9.90;99.90;;;;;;12532470;28;20041;-83
2024/03/17 18:02:35;;;;;;;11.02;6.60;;;9.80;99.90;;;;;;12515773;28;20124;-83
2024/03/17 18:08:36;;;;;;;10.65;6.50;;;9.70;99.90;;;;;;12540589;28;20049;-83
2024/03/17 18:14:36;;;;;;;9.57;5.90;;;9.70;99.90;;;;;;12522117;28;20152;-85
2024/03/17 18:20:37;;;;;;;8.98;5.53;;;9.50;99.90;;;;;;12522265;28;20052;-85
2024/03/17 18:26:39;;;;;;;9.55;5.18;;;9.50;99.90;;;;;;12502884;28;20149;-86
2024/03/17 18:32:40;;;;;;;9.95;5.75;;;9.50;99.90;;;;;;12504251;28;20087;-85
2024/03/17 18:38:42;;;;;;;9.80;6.32;;;9.50;99.90;;;;;;12500300;28;20049;-85
2024/03/17 18:44:43;;;;;;;11.35;6.72;;;9.40;99.90;;;;;;12500262;28;20060;-82
2024/03/17 18:50:44;;;;;;;11.27;7.13;;;9.30;99.90;;;;;;12505414;28;20532;-82
2024/03/17 18:56:44;;;;;;;13.15;6.75;;;9.20;99.90;;;;;;12511799;28;20048;-82
2024/03/17 19:02:50;;;;;;;12.90;6.88;;;9.20;99.90;;;;;;12528771;28;20050;-82
2024/03/17 19:08:52;;;;;;;14.77;7.50;;;9.20;99.90;;;;;;12526847;28;20041;-82
2024/03/17 19:14:54;;;;;;;15.43;7.90;;;9.20;99.90;;;;;;12526688;28;20409;-83
2024/03/17 19:21:07;;;;;;;10.25;7.00;;;9.20;99.90;;;;;;12508215;28;20049;-82
2024/03/17 19:27:09;;;;;;;10.93;6.63;;;9.10;99.90;;;;;;12520273;28;20056;-83
2024/03/17 19:33:10;;;;;;;13.93;7.00;;;9.10;99.90;;;;;;12526166;28;20067;-82
2024/03/17 19:39:10;;;;;;;13.00;7.15;;;9.10;99.90;;;;;;12509476;28;20060;-84
2024/03/17 19:45:12;;;;;;;10.82;7.45;;;9.10;99.90;;;;;;12527653;28;20091;-82
2024/03/17 19:51:15;;;;;;;11.80;7.70;;;9.10;99.90;;;;;;12532157;28;20053;-82
2024/03/17 19:57:17;;;;;;;12.45;7.80;;;9.00;99.90;;;;;;12524824;28;20527;-85
2024/03/17 20:03:18;;;;;;;11.73;7.95;;;9.00;99.90;;;;;;12494277;28;20603;-82
2024/03/17 20:09:19;;;;;;;12.85;7.30;;;8.90;99.90;;;;;;12536743;28;20123;-85
2024/03/17 20:15:22;;;;;;;13.90;7.72;;;8.90;99.90;;;;;;12520598;28;20041;-85
2024/03/17 20:21:24;;;;;;;13.30;7.53;;;8.90;99.90;;;;;;12507509;28;20053;-85
2024/03/17 20:27:25;;;;;;;14.25;7.88;;;8.80;99.90;;;;;;12517265;28;20056;-86
2024/03/17 20:33:26;;;;;;;12.52;7.57;;;8.80;99.90;;;;;;12519762;28;20409;-83
2024/03/17 20:39:31;;;;;;;12.85;7.65;;;8.80;99.90;;;;;;12514448;28;20099;-81
2024/03/17 20:45:32;;;;;;;;;;;8.70;99.90;;;;;;12544698;28;20057;-80
2024/03/17 20:51:32;;;;;;;12.57;8.07;;;8.60;99.90;;;;;;12533369;28;20369;-80
2024/03/17 20:57:33;;;;;;;14.50;7.68;;;8.60;99.90;;;;;;12535415;28;20206;-80
2024/03/17 21:03:34;;;;;;;11.85;7.97;;;8.50;99.90;;;;;;12550121;28;20128;-80
2024/03/17 21:09:35;;;;;;;12.90;7.75;;;8.40;99.90;;;;;;12524416;28;20516;-84
2024/03/17 21:15:36;;;;;;;10.27;7.18;;;8.40;99.90;;;;;;12503659;28;20512;-80
2024/03/17 21:21:37;;;;;;;11.55;8.13;;;8.40;99.90;;;;;;12531796;28;20060;-80
2024/03/17 21:27:45;;;;;;;14.00;7.88;;;8.50;99.90;;;;;;12530154;28;20108;-81
2024/03/17 21:33:47;;;;;;;12.20;7.75;;;8.50;99.90;;;;;;12517379;28;20052;-81
2024/03/17 21:39:48;;;;;;;9.60;6.57;;;8.50;99.90;;;;;;12530997;28;20485;-80
2024/03/17 21:45:49;;;;;;;11.00;7.32;;;8.50;99.90;;;;;;12510223;28;20060;-85
2024/03/17 21:51:51;;;;;;;13.88;7.95;;;8.50;99.90;;;;;;12517834;28;20141;-84
2024/03/17 21:57:52;;;;;;;15.32;7.97;;;8.30;99.90;;;;;;12500681;28;20045;-85
2024/03/17 22:03:53;;;;;;;12.02;8.27;;;8.20;99.90;;;;;;12516283;28;20045;-85
2024/03/17 22:09:54;;;;;;;11.80;7.20;;;8.20;99.90;;;;;;12512343;28;20049;-84
2024/03/17 22:16:00;;;;;;;13.50;7.80;;;8.10;99.90;;;;;;12491596;28;20061;-85
2024/03/17 22:22:02;;;;;;;11.32;7.43;;;8.10;99.90;;;;;;12519170;28;20052;-85
2024/03/17 22:28:03;;;;;;;11.05;7.30;;;8.10;99.90;;;;;;12512851;28;20053;-83
2024/03/17 22:34:04;;;;;;;12.75;7.90;;;8.10;99.90;;;;;;12556907;28;20051;-82
2024/03/17 22:40:06;;;;;;;11.73;7.78;;;8.00;99.90;;;;;;12585011;28;20074;-82
2024/03/17 22:46:13;;;;;;;11.63;6.93;;;8.00;99.90;;;;;;12586902;28;20129;-83
2024/03/17 22:52:14;;;;;;;11.93;7.22;;;8.10;99.90;;;;;;12574707;28;20116;-83
2024/03/17 22:58:19;;;;;;;11.15;7.43;;;8.10;99.90;;;;;;12562312;28;20092;-80
2024/03/17 23:04:21;;;;;;;13.60;8.00;;;7.90;99.90;;;;;;12538656;28;20048;-80
2024/03/17 23:10:24;;;;;;;13.55;7.57;;;7.90;99.90;;;;;;12540156;28;20052;-80
2024/03/17 23:16:25;;;;;;;10.63;7.15;;;7.90;99.90;;;;;;12519205;28;20050;-79
2024/03/17 23:22:26;;;;;;;9.60;7.15;;;7.90;99.90;;;;;;12520261;28;20057;-80
2024/03/17 23:28:27;;;;;;;13.85;7.30;;;7.90;99.90;;;;;;12526416;28;20061;-79
2024/03/17 23:34:28;;;;;;;12.43;7.68;;;7.90;99.90;;;;;;12537597;28;20045;-79
2024/03/17 23:40:30;;;;;;;12.80;7.13;;;7.80;99.90;;;;;;12565620;28;20079;-83
2024/03/17 23:46:31;;;;;;;11.02;7.70;;;7.80;99.90;;;;;;12568795;28;20139;-82
2024/03/17 23:52:36;;;;;;;13.23;7.35;;;7.70;99.90;;;;;;12547560;28;20075;-83
2024/03/17 23:58:37;;;;;;;14.60;7.90;;;7.60;99.90;;;;;;12518962;28;20072;-83
